createdAt,value
2023-01-18T00:00:09.509Z,-4.2
2023-01-18T00:01:09.509Z,-4.3
2023-01-18T00:02:09.540Z,-4.3
2023-01-18T00:03:09.486Z,-4.3
2023-01-18T00:04:09.487Z,-4.3
2023-01-18T00:05:09.578Z,-4.4
2023-01-18T00:06:09.486Z,-4.4
2023-01-18T00:07:09.695Z,-4.4
2023-01-18T00:08:09.480Z,-4.4
2023-01-18T00:09:09.490Z,-4.5
2023-01-18T00:10:09.486Z,-4.5
2023-01-18T00:11:09.487Z,-4.5
2023-01-18T00:12:09.481Z,-4.6
2023-01-18T00:13:09.481Z,-4.6
2023-01-18T00:14:09.492Z,-4.6
2023-01-18T00:15:09.496Z,-4.6
2023-01-18T00:16:09.544Z,-4.6
2023-01-18T00:17:09.486Z,-4.6
2023-01-18T00:18:09.484Z,-4.6
2023-01-18T00:19:09.481Z,-4.6
2023-01-18T00:20:09.489Z,-4.6
2023-01-18T00:21:09.488Z,-4.6
2023-01-18T00:22:09.486Z,-4.7
2023-01-18T00:23:09.668Z,-4.7
2023-01-18T00:24:09.483Z,-4.7
2023-01-18T00:25:09.489Z,-4.8
2023-01-18T00:26:09.491Z,-4.8
2023-01-18T00:27:09.489Z,-4.8
2023-01-18T00:28:09.487Z,-4.8
2023-01-18T00:29:09.480Z,-4.8
2023-01-18T00:30:09.490Z,-4.9
2023-01-18T00:31:09.487Z,-4.9
2023-01-18T00:32:09.510Z,-4.9
2023-01-18T00:33:09.485Z,-4.9
2023-01-18T00:34:09.494Z,-4.9
2023-01-18T00:35:09.487Z,-4.9
2023-01-18T00:36:09.512Z,-4.9
2023-01-18T00:37:09.490Z,-4.9
2023-01-18T00:38:09.486Z,-4.9
2023-01-18T00:39:09.494Z,-4.9
2023-01-18T00:40:09.482Z,-4.9
2023-01-18T00:41:09.490Z,-4.9
2023-01-18T00:42:09.495Z,-4.9
2023-01-18T00:43:09.488Z,-5
2023-01-18T00:44:09.484Z,-5
2023-01-18T00:45:09.485Z,-5
2023-01-18T00:46:09.548Z,-5
2023-01-18T00:47:09.491Z,-5
2023-01-18T00:48:09.498Z,-5
2023-01-18T00:49:09.485Z,-5
2023-01-18T00:50:09.497Z,-5
2023-01-18T00:51:09.493Z,-5
2023-01-18T00:52:09.481Z,-5
2023-01-18T00:53:09.486Z,-5
2023-01-18T00:54:09.486Z,-5
2023-01-18T00:55:09.496Z,-5
2023-01-18T00:56:09.511Z,-5
2023-01-18T00:57:09.481Z,-5
2023-01-18T00:58:09.481Z,-5
2023-01-18T00:59:09.490Z,-5
2023-01-18T01:00:09.503Z,-5
2023-01-18T01:01:09.620Z,-5
2023-01-18T01:02:09.644Z,-5
2023-01-18T01:03:09.488Z,-5
2023-01-18T01:04:09.486Z,-5
2023-01-18T01:05:09.512Z,-5
2023-01-18T01:06:09.483Z,-5
2023-01-18T01:07:09.482Z,-5
2023-01-18T01:08:09.498Z,-5
2023-01-18T01:09:09.488Z,-5.1
2023-01-18T01:10:09.489Z,-5.1
2023-01-18T01:11:09.521Z,-5.1
2023-01-18T01:12:09.498Z,-5
2023-01-18T01:13:09.487Z,-5
2023-01-18T01:14:09.482Z,-5
2023-01-18T01:15:09.485Z,-5
2023-01-18T01:16:09.527Z,-5
2023-01-18T01:17:09.484Z,-5
2023-01-18T01:18:09.488Z,-5
2023-01-18T01:19:09.530Z,-5
2023-01-18T01:20:09.483Z,-5.1
2023-01-18T01:21:09.493Z,-5.1
2023-01-18T01:22:09.495Z,-5.1
2023-01-18T01:23:09.572Z,-5.1
2023-01-18T01:24:09.844Z,-5.1
2023-01-18T01:25:10.278Z,-5.1
2023-01-18T01:26:10.475Z,-5.1
2023-01-18T01:27:09.478Z,-5.1
2023-01-18T01:28:09.705Z,-5.1
2023-01-18T01:29:09.488Z,-5.1
2023-01-18T01:30:09.491Z,-5
2023-01-18T01:31:09.570Z,-5
2023-01-18T01:32:09.496Z,-5
2023-01-18T01:33:09.632Z,-4.9
2023-01-18T01:34:09.508Z,-4.9
2023-01-18T01:35:09.494Z,-4.8
2023-01-18T01:36:09.503Z,-4.8
2023-01-18T01:37:09.481Z,-4.8
2023-01-18T01:38:09.482Z,-4.8
2023-01-18T01:39:09.504Z,-4.8
2023-01-18T01:40:09.483Z,-4.8
2023-01-18T01:41:09.484Z,-4.8
2023-01-18T01:42:09.490Z,-4.8
2023-01-18T01:43:09.494Z,-4.8
2023-01-18T01:44:09.487Z,-4.8
2023-01-18T01:45:09.489Z,-4.8
2023-01-18T01:46:09.580Z,-4.8
2023-01-18T01:47:09.482Z,-4.8
2023-01-18T01:48:09.487Z,-4.8
2023-01-18T01:49:09.497Z,-4.8
2023-01-18T01:50:09.482Z,-4.8
2023-01-18T01:51:09.511Z,-4.9
2023-01-18T01:52:09.508Z,-4.9
2023-01-18T01:53:09.484Z,-4.9
2023-01-18T01:54:09.482Z,-4.9
2023-01-18T01:55:09.499Z,-5
2023-01-18T01:56:09.501Z,-5
2023-01-18T01:57:09.482Z,-4.9
2023-01-18T01:58:09.484Z,-4.9
2023-01-18T01:59:09.486Z,-4.9
2023-01-18T02:00:09.483Z,-4.9
2023-01-18T02:01:09.572Z,-4.9
2023-01-18T02:02:09.628Z,-4.9
2023-01-18T02:03:09.491Z,-4.9
2023-01-18T02:04:09.490Z,-5
2023-01-18T02:05:09.483Z,-5
2023-01-18T02:06:09.488Z,-5
2023-01-18T02:07:09.484Z,-5
2023-01-18T02:08:09.521Z,-5
2023-01-18T02:09:09.485Z,-5
2023-01-18T02:10:09.486Z,-5
2023-01-18T02:11:09.492Z,-5
2023-01-18T02:12:09.488Z,-5
2023-01-18T02:13:09.517Z,-5
2023-01-18T02:14:09.679Z,-5.1
2023-01-18T02:15:09.485Z,-5.1
2023-01-18T02:16:09.523Z,-5.1
2023-01-18T02:17:09.489Z,-5.1
2023-01-18T02:18:09.487Z,-5.2
2023-01-18T02:19:09.485Z,-5.2
2023-01-18T02:20:09.486Z,-5.2
2023-01-18T02:21:09.482Z,-5.2
2023-01-18T02:22:09.488Z,-5.2
2023-01-18T02:23:09.493Z,-5.2
2023-01-18T02:24:09.485Z,-5.2
2023-01-18T02:25:09.489Z,-5.3
2023-01-18T02:26:09.489Z,-5.3
2023-01-18T02:27:09.595Z,-5.3
2023-01-18T02:28:09.497Z,-5.3
2023-01-18T02:29:09.485Z,-5.3
2023-01-18T02:30:09.492Z,-5.3
2023-01-18T02:31:09.493Z,-5.3
2023-01-18T02:32:09.481Z,-5.3
2023-01-18T02:33:09.481Z,-5.4
2023-01-18T02:34:09.487Z,-5.4
2023-01-18T02:35:09.489Z,-5.4
2023-01-18T02:36:09.503Z,-5.4
2023-01-18T02:37:09.494Z,-5.4
2023-01-18T02:38:09.494Z,-5.4
2023-01-18T02:39:10.768Z,-5.4
2023-01-18T02:40:09.483Z,-5.4
2023-01-18T02:41:09.525Z,-5.4
2023-01-18T02:42:09.758Z,-5.4
2023-01-18T02:43:09.486Z,-5.4
2023-01-18T02:44:09.506Z,-5.4
2023-01-18T02:45:09.486Z,-5.4
2023-01-18T02:46:09.557Z,-5.5
2023-01-18T02:47:09.484Z,-5.5
2023-01-18T02:48:09.497Z,-5.5
2023-01-18T02:49:09.515Z,-5.5
2023-01-18T02:50:09.487Z,-5.5
2023-01-18T02:51:09.486Z,-5.5
2023-01-18T02:52:09.481Z,-5.5
2023-01-18T02:53:09.483Z,-5.5
2023-01-18T02:54:09.583Z,-5.6
2023-01-18T02:55:09.818Z,-5.6
2023-01-18T02:56:10.236Z,-5.6
2023-01-18T02:57:09.482Z,-5.6
2023-01-18T02:58:09.491Z,-5.6
2023-01-18T02:59:09.501Z,-5.6
2023-01-18T03:00:09.490Z,-5.6
2023-01-18T03:01:09.675Z,-5.6
2023-01-18T03:02:09.883Z,-5.6
2023-01-18T03:03:09.633Z,-5.6
2023-01-18T03:04:09.510Z,-5.7
2023-01-18T03:05:09.620Z,-5.7
2023-01-18T03:06:09.490Z,-5.7
2023-01-18T03:07:09.698Z,-5.7
2023-01-18T03:08:09.520Z,-5.7
2023-01-18T03:09:09.629Z,-5.7
2023-01-18T03:10:09.693Z,-5.7
2023-01-18T03:11:09.506Z,-5.7
2023-01-18T03:12:09.737Z,-5.7
2023-01-18T03:13:09.926Z,-5.7
2023-01-18T03:14:09.492Z,-5.7
2023-01-18T03:15:09.501Z,-5.8
2023-01-18T03:16:09.559Z,-5.8
2023-01-18T03:17:09.488Z,-5.8
2023-01-18T03:18:09.488Z,-5.8
2023-01-18T03:19:09.488Z,-5.8
2023-01-18T03:20:09.487Z,-5.9
2023-01-18T03:21:09.491Z,-5.9
2023-01-18T03:22:09.483Z,-5.9
2023-01-18T03:23:09.532Z,-5.9
2023-01-18T03:24:09.492Z,-5.9
2023-01-18T03:25:09.487Z,-5.9
2023-01-18T03:26:09.499Z,-5.9
2023-01-18T03:27:09.509Z,-5.9
2023-01-18T03:28:09.529Z,-5.9
2023-01-18T03:29:09.482Z,-5.9
2023-01-18T03:30:09.498Z,-5.9
2023-01-18T03:31:09.575Z,-5.9
2023-01-18T03:32:09.483Z,-5.9
2023-01-18T03:33:09.492Z,-5.9
2023-01-18T03:34:09.488Z,-5.9
2023-01-18T03:35:09.492Z,-5.9
2023-01-18T03:36:09.512Z,-5.9
2023-01-18T03:37:09.493Z,-5.9
2023-01-18T03:38:09.531Z,-5.9
2023-01-18T03:39:09.505Z,-5.9
2023-01-18T03:40:09.487Z,-5.9
2023-01-18T03:41:09.495Z,-5.8
2023-01-18T03:42:09.762Z,-5.8
2023-01-18T03:43:09.505Z,-5.8
2023-01-18T03:44:09.487Z,-5.8
2023-01-18T03:45:09.494Z,-5.7
2023-01-18T03:46:09.522Z,-5.7
2023-01-18T03:47:09.484Z,-5.7
2023-01-18T03:48:09.486Z,-5.7
2023-01-18T03:49:09.487Z,-5.7
2023-01-18T03:50:09.490Z,-5.7
2023-01-18T03:51:09.503Z,-5.7
2023-01-18T03:52:09.482Z,-5.7
2023-01-18T03:53:09.484Z,-5.7
2023-01-18T03:54:09.496Z,-5.7
2023-01-18T03:55:09.494Z,-5.7
2023-01-18T03:56:09.494Z,-5.7
2023-01-18T03:57:09.487Z,-5.7
2023-01-18T03:58:09.498Z,-5.7
2023-01-18T03:59:09.487Z,-5.7
2023-01-18T04:00:09.493Z,-5.6
2023-01-18T04:01:09.578Z,-5.6
2023-01-18T04:02:09.517Z,-5.6
2023-01-18T04:03:09.522Z,-5.6
2023-01-18T04:04:09.521Z,-5.6
2023-01-18T04:05:09.480Z,-5.6
2023-01-18T04:06:09.484Z,-5.6
2023-01-18T04:07:09.496Z,-5.6
2023-01-18T04:08:09.486Z,-5.6
2023-01-18T04:09:09.535Z,-5.6
2023-01-18T04:10:09.497Z,-5.6
2023-01-18T04:11:09.481Z,-5.6
2023-01-18T04:12:09.489Z,-5.6
2023-01-18T04:13:09.486Z,-5.6
2023-01-18T04:14:09.526Z,-5.6
2023-01-18T04:15:09.492Z,-5.6
2023-01-18T04:16:09.520Z,-5.6
2023-01-18T04:17:09.489Z,-5.6
2023-01-18T04:18:09.494Z,-5.6
2023-01-18T04:19:09.511Z,-5.6
2023-01-18T04:20:09.501Z,-5.6
2023-01-18T04:21:09.485Z,-5.6
2023-01-18T04:22:09.886Z,-5.6
2023-01-18T04:23:09.487Z,-5.6
2023-01-18T04:24:09.510Z,-5.6
2023-01-18T04:25:09.507Z,-5.6
2023-01-18T04:26:09.479Z,-5.6
2023-01-18T04:27:09.486Z,-5.6
2023-01-18T04:28:09.491Z,-5.6
2023-01-18T04:29:09.511Z,-5.6
2023-01-18T04:30:09.487Z,-5.6
2023-01-18T04:31:09.499Z,-5.6
2023-01-18T04:32:09.483Z,-5.6
2023-01-18T04:33:09.485Z,-5.6
2023-01-18T04:34:09.512Z,-5.6
2023-01-18T04:35:09.488Z,-5.6
2023-01-18T04:36:09.484Z,-5.6
2023-01-18T04:37:09.501Z,-5.6
2023-01-18T04:38:09.487Z,-5.6
2023-01-18T04:39:09.488Z,-5.6
2023-01-18T04:40:09.489Z,-5.6
2023-01-18T04:41:09.501Z,-5.6
2023-01-18T04:42:09.496Z,-5.6
2023-01-18T04:43:09.501Z,-5.6
2023-01-18T04:44:09.489Z,-5.6
2023-01-18T04:45:09.681Z,-5.6
2023-01-18T04:46:09.499Z,-5.6
2023-01-18T04:47:09.496Z,-5.6
2023-01-18T04:48:09.503Z,-5.6
2023-01-18T04:49:09.485Z,-5.6
2023-01-18T04:50:09.502Z,-5.6
2023-01-18T04:51:09.514Z,-5.6
2023-01-18T04:52:09.495Z,-5.6
2023-01-18T04:53:09.481Z,-5.7
2023-01-18T04:54:09.481Z,-5.7
2023-01-18T04:55:09.483Z,-5.7
2023-01-18T04:56:09.486Z,-5.7
2023-01-18T04:57:09.489Z,-5.7
2023-01-18T04:58:09.482Z,-5.7
2023-01-18T04:59:09.483Z,-5.7
2023-01-18T05:00:11.997Z,-5.7
2023-01-18T05:01:09.963Z,-5.7
2023-01-18T05:02:09.522Z,-5.8
2023-01-18T05:03:09.651Z,-5.8
2023-01-18T05:04:09.480Z,-5.8
2023-01-18T05:05:09.484Z,-5.8
2023-01-18T05:06:09.498Z,-5.8
2023-01-18T05:07:09.485Z,-5.8
2023-01-18T05:08:09.484Z,-5.8
2023-01-18T05:09:09.481Z,-5.8
2023-01-18T05:10:09.487Z,-5.8
2023-01-18T05:11:09.497Z,-5.8
2023-01-18T05:12:09.490Z,-5.8
2023-01-18T05:13:09.484Z,-5.8
2023-01-18T05:14:09.480Z,-5.8
2023-01-18T05:15:09.487Z,-5.8
2023-01-18T05:16:09.541Z,-5.8
2023-01-18T05:17:09.486Z,-5.8
2023-01-18T05:18:09.499Z,-5.9
2023-01-18T05:19:09.497Z,-5.9
2023-01-18T05:20:09.487Z,-5.9
2023-01-18T05:21:09.496Z,-5.9
2023-01-18T05:22:09.483Z,-5.9
2023-01-18T05:23:09.481Z,-5.9
2023-01-18T05:24:09.541Z,-5.9
2023-01-18T05:25:09.509Z,-5.9
2023-01-18T05:26:09.484Z,-5.9
2023-01-18T05:27:09.501Z,-5.9
2023-01-18T05:28:09.502Z,-5.9
2023-01-18T05:29:09.489Z,-5.9
2023-01-18T05:30:09.483Z,-5.9
2023-01-18T05:31:09.568Z,-5.9
2023-01-18T05:32:09.494Z,-5.9
2023-01-18T05:33:09.493Z,-5.9
2023-01-18T05:34:09.485Z,-5.9
2023-01-18T05:35:09.483Z,-5.9
2023-01-18T05:36:09.510Z,-5.9
2023-01-18T05:37:09.483Z,-5.9
2023-01-18T05:38:09.500Z,-5.9
2023-01-18T05:39:09.583Z,-5.9
2023-01-18T05:40:09.490Z,-5.9
2023-01-18T05:41:09.485Z,-6
2023-01-18T05:42:09.482Z,-6
2023-01-18T05:43:09.492Z,-6
2023-01-18T05:44:09.485Z,-6
2023-01-18T05:45:09.497Z,-6
2023-01-18T05:46:09.568Z,-6
2023-01-18T05:47:09.485Z,-6
2023-01-18T05:48:09.484Z,-6
2023-01-18T05:49:09.481Z,-6
2023-01-18T05:50:09.483Z,-6
2023-01-18T05:51:09.525Z,-6
2023-01-18T05:52:09.489Z,-6
2023-01-18T05:53:09.491Z,-6
2023-01-18T05:54:09.484Z,-5.9
2023-01-18T05:55:09.488Z,-5.9
2023-01-18T05:56:09.483Z,-5.9
2023-01-18T05:57:09.487Z,-5.9
2023-01-18T05:58:09.504Z,-5.9
2023-01-18T05:59:09.487Z,-5.9
2023-01-18T06:00:09.496Z,-5.9
2023-01-18T06:01:09.565Z,-5.9
2023-01-18T06:02:09.498Z,-5.9
2023-01-18T06:03:10.800Z,-5.9
2023-01-18T06:04:09.517Z,-5.9
2023-01-18T06:05:09.487Z,-5.9
2023-01-18T06:06:09.487Z,-5.9
2023-01-18T06:07:09.557Z,-5.9
2023-01-18T06:08:09.617Z,-5.9
2023-01-18T06:09:09.487Z,-5.9
2023-01-18T06:10:09.483Z,-5.9
2023-01-18T06:11:09.483Z,-5.9
2023-01-18T06:12:09.493Z,-5.9
2023-01-18T06:13:09.481Z,-5.9
2023-01-18T06:14:09.488Z,-5.9
2023-01-18T06:15:09.481Z,-5.9
2023-01-18T06:16:09.573Z,-5.9
2023-01-18T06:17:09.678Z,-5.9
2023-01-18T06:18:09.861Z,-5.9
2023-01-18T06:19:09.488Z,-5.9
2023-01-18T06:20:09.489Z,-5.9
2023-01-18T06:21:09.484Z,-5.9
2023-01-18T06:22:09.498Z,-5.9
2023-01-18T06:23:09.503Z,-5.9
2023-01-18T06:24:09.481Z,-5.9
2023-01-18T06:25:09.503Z,-5.9
2023-01-18T06:26:09.511Z,-5.9
2023-01-18T06:27:09.487Z,-5.9
2023-01-18T06:28:09.490Z,-5.9
2023-01-18T06:29:09.481Z,-5.9
2023-01-18T06:30:09.489Z,-5.9
2023-01-18T06:31:09.495Z,-5.9
2023-01-18T06:32:09.492Z,-5.9
2023-01-18T06:33:09.490Z,-5.9
2023-01-18T06:34:09.591Z,-5.9
2023-01-18T06:35:09.508Z,-5.9
2023-01-18T06:36:09.513Z,-5.9
2023-01-18T06:37:09.484Z,-5.9
2023-01-18T06:38:09.499Z,-5.9
2023-01-18T06:39:09.498Z,-5.9
2023-01-18T06:40:09.487Z,-5.9
2023-01-18T06:41:09.481Z,-5.9
2023-01-18T06:42:09.580Z,-5.9
2023-01-18T06:43:09.498Z,-5.9
2023-01-18T06:44:09.491Z,-5.9
2023-01-18T06:45:09.552Z,-5.9
2023-01-18T06:46:09.834Z,-5.9
2023-01-18T06:47:09.667Z,-5.8
2023-01-18T06:48:09.926Z,-5.8
2023-01-18T06:49:09.488Z,-5.8
2023-01-18T06:50:09.481Z,-5.8
2023-01-18T06:51:09.480Z,-5.8
2023-01-18T06:52:09.501Z,-5.8
2023-01-18T06:53:09.486Z,-5.8
2023-01-18T06:54:09.485Z,-5.7
2023-01-18T06:55:09.482Z,-5.7
2023-01-18T06:56:09.490Z,-5.7
2023-01-18T06:57:09.493Z,-5.7
2023-01-18T06:58:09.479Z,-5.7
2023-01-18T06:59:09.486Z,-5.7
2023-01-18T07:00:09.487Z,-5.7
2023-01-18T07:01:09.617Z,-5.6
2023-01-18T07:02:09.553Z,-5.6
2023-01-18T07:03:09.489Z,-5.6
2023-01-18T07:04:09.601Z,-5.6
2023-01-18T07:05:09.482Z,-5.5
2023-01-18T07:06:09.492Z,-5.4
2023-01-18T07:07:09.489Z,-5.4
2023-01-18T07:08:09.483Z,-5.4
2023-01-18T07:09:09.492Z,-5.4
2023-01-18T07:10:09.485Z,-5.4
2023-01-18T07:11:09.485Z,-5.3
2023-01-18T07:12:09.485Z,-5.3
2023-01-18T07:13:09.487Z,-5.3
2023-01-18T07:14:09.492Z,-5.3
2023-01-18T07:15:20.719Z,-5.3
2023-01-18T07:16:09.607Z,-5.2
2023-01-18T07:17:09.487Z,-5.2
2023-01-18T07:18:09.484Z,-5.2
2023-01-18T07:19:09.487Z,-5.2
2023-01-18T07:20:09.507Z,-5.2
2023-01-18T07:21:09.490Z,-5.2
2023-01-18T07:22:09.489Z,-5.2
2023-01-18T07:23:09.505Z,-5.2
2023-01-18T07:24:09.498Z,-5.1
2023-01-18T07:25:09.491Z,-5.1
2023-01-18T07:26:09.626Z,-5.1
2023-01-18T07:27:09.531Z,-5
2023-01-18T07:28:09.799Z,-5
2023-01-18T07:29:10.022Z,-5
2023-01-18T07:30:09.697Z,-5
2023-01-18T07:31:09.998Z,-5
2023-01-18T07:32:09.790Z,-4.9
2023-01-18T07:33:09.691Z,-4.9
2023-01-18T07:34:09.501Z,-4.8
2023-01-18T07:35:09.494Z,-4.8
2023-01-18T07:36:09.495Z,-4.8
2023-01-18T07:37:09.487Z,-4.7
2023-01-18T07:38:09.485Z,-4.7
2023-01-18T07:39:09.486Z,-4.6
2023-01-18T07:40:09.483Z,-4.6
2023-01-18T07:41:09.493Z,-4.6
2023-01-18T07:42:09.487Z,-4.6
2023-01-18T07:43:09.489Z,-4.6
2023-01-18T07:44:09.487Z,-4.6
2023-01-18T07:45:09.594Z,-4.6
2023-01-18T07:46:09.522Z,-4.5
2023-01-18T07:47:09.494Z,-4.5
2023-01-18T07:48:09.487Z,-4.5
2023-01-18T07:49:09.500Z,-4.5
2023-01-18T07:50:09.487Z,-4.4
2023-01-18T07:51:09.505Z,-4.4
2023-01-18T07:52:09.493Z,-4.4
2023-01-18T07:53:09.502Z,-4.3
2023-01-18T07:54:09.484Z,-4.3
2023-01-18T07:55:09.489Z,-4.2
2023-01-18T07:56:09.498Z,-4.2
2023-01-18T07:57:09.491Z,-4.2
2023-01-18T07:58:09.488Z,-4.2
2023-01-18T07:59:09.593Z,-4.2
2023-01-18T08:00:09.486Z,-4.1
2023-01-18T08:01:09.626Z,-4.1
2023-01-18T08:02:09.569Z,-4.1
2023-01-18T08:03:09.520Z,-4.1
2023-01-18T08:04:09.500Z,-4
2023-01-18T08:05:09.480Z,-4
2023-01-18T08:06:09.488Z,-4
2023-01-18T08:07:09.497Z,-4
2023-01-18T08:08:11.233Z,-3.9
2023-01-18T08:09:09.486Z,-3.9
2023-01-18T08:10:09.486Z,-3.9
2023-01-18T08:11:09.491Z,-3.9
2023-01-18T08:12:09.491Z,-3.9
2023-01-18T08:13:09.491Z,-3.8
2023-01-18T08:14:09.654Z,-3.9
2023-01-18T08:15:09.488Z,-3.8
2023-01-18T08:16:09.549Z,-3.8
2023-01-18T08:17:09.489Z,-3.8
2023-01-18T08:18:09.491Z,-3.8
2023-01-18T08:19:09.495Z,-3.8
2023-01-18T08:20:09.519Z,-3.8
2023-01-18T08:21:09.503Z,-3.8
2023-01-18T08:22:09.484Z,-3.7
2023-01-18T08:23:09.482Z,-3.7
2023-01-18T08:24:09.492Z,-3.7
2023-01-18T08:25:09.494Z,-3.6
2023-01-18T08:26:09.502Z,-3.6
2023-01-18T08:27:09.486Z,-3.5
2023-01-18T08:28:09.575Z,-3.5
2023-01-18T08:29:09.487Z,-3.5
2023-01-18T08:30:09.486Z,-3.5
2023-01-18T08:31:09.610Z,-3.5
2023-01-18T08:32:09.511Z,-3.5
2023-01-18T08:33:09.494Z,-3.5
2023-01-18T08:34:09.698Z,-3.4
2023-01-18T08:35:10.035Z,-3.4
2023-01-18T08:36:10.342Z,-3.4
2023-01-18T08:37:10.349Z,-3.4
2023-01-18T08:38:09.612Z,-3.3
2023-01-18T08:39:09.491Z,-3.3
2023-01-18T08:40:09.488Z,-3.3
2023-01-18T08:41:09.514Z,-3.3
2023-01-18T08:42:09.511Z,-3.2
2023-01-18T08:43:09.634Z,-3.2
2023-01-18T08:44:09.489Z,-3.1
2023-01-18T08:45:09.489Z,-3.1
2023-01-18T08:46:09.519Z,-3.1
2023-01-18T08:47:09.506Z,-3.1
2023-01-18T08:48:09.513Z,-3.1
2023-01-18T08:49:09.509Z,-3
2023-01-18T08:50:09.495Z,-3
2023-01-18T08:51:09.487Z,-2.9
2023-01-18T08:52:09.484Z,-2.9
2023-01-18T08:53:09.488Z,-2.8
2023-01-18T08:54:09.493Z,-2.8
2023-01-18T08:55:09.500Z,-2.8
2023-01-18T08:56:09.492Z,-2.8
2023-01-18T08:57:09.583Z,-2.8
2023-01-18T08:58:09.517Z,-2.7
2023-01-18T08:59:09.533Z,-2.7
2023-01-18T09:00:09.487Z,-2.7
2023-01-18T09:01:09.532Z,-2.6
2023-01-18T09:02:09.511Z,-2.6
2023-01-18T09:03:09.549Z,-2.6
2023-01-18T09:04:09.482Z,-2.5
2023-01-18T09:05:09.494Z,-2.5
2023-01-18T09:06:11.774Z,-2.5
2023-01-18T09:07:09.491Z,-2.5
2023-01-18T09:08:09.514Z,-2.5
2023-01-18T09:09:09.491Z,-2.5
2023-01-18T09:10:09.489Z,-2.5
2023-01-18T09:11:09.490Z,-2.5
2023-01-18T09:12:09.486Z,-2.4
2023-01-18T09:13:09.515Z,-2.4
2023-01-18T09:14:09.505Z,-2.4
2023-01-18T09:15:09.483Z,-2.4
2023-01-18T09:16:09.496Z,-2.3
2023-01-18T09:17:09.502Z,-2.3
2023-01-18T09:18:09.491Z,-2.3
2023-01-18T09:19:09.506Z,-2.3
2023-01-18T09:20:09.493Z,-2.3
2023-01-18T09:21:09.546Z,-2.2
2023-01-18T09:22:09.488Z,-2.2
2023-01-18T09:23:09.490Z,-2.2
2023-01-18T09:24:09.512Z,-2.2
2023-01-18T09:25:09.486Z,-2.2
2023-01-18T09:26:09.490Z,-2.2
2023-01-18T09:27:09.485Z,-2.2
2023-01-18T09:28:09.483Z,-2.1
2023-01-18T09:29:09.502Z,-2.1
2023-01-18T09:30:09.487Z,-2.1
2023-01-18T09:31:09.501Z,-2.1
2023-01-18T09:32:09.498Z,-2
2023-01-18T09:33:09.485Z,-2
2023-01-18T09:34:18.716Z,-2
2023-01-18T09:35:09.486Z,-2
2023-01-18T09:36:09.507Z,-2
2023-01-18T09:37:09.488Z,-1.9
2023-01-18T09:38:09.498Z,-1.9
2023-01-18T09:39:09.494Z,-1.8
2023-01-18T09:40:09.487Z,-1.8
2023-01-18T09:41:09.519Z,-1.8
2023-01-18T09:42:09.513Z,-1.7
2023-01-18T09:43:09.491Z,-1.7
2023-01-18T09:44:09.496Z,-1.7
2023-01-18T09:45:09.494Z,-1.7
2023-01-18T09:46:09.518Z,-1.6
2023-01-18T09:47:09.512Z,-1.6
2023-01-18T09:48:09.487Z,-1.5
2023-01-18T09:49:09.502Z,-1.5
2023-01-18T09:50:09.483Z,-1.5
2023-01-18T09:51:09.488Z,-1.5
2023-01-18T09:52:09.621Z,-1.4
2023-01-18T09:53:09.851Z,-1.4
2023-01-18T09:54:09.488Z,-1.4
2023-01-18T09:55:09.670Z,-1.3
2023-01-18T09:56:09.500Z,-1.3
2023-01-18T09:57:09.507Z,-1.3
2023-01-18T09:58:09.499Z,-1.2
2023-01-18T09:59:09.486Z,-1.2
2023-01-18T10:00:09.484Z,-1.2
2023-01-18T10:01:09.534Z,-1.2
2023-01-18T10:02:09.654Z,-1.2
2023-01-18T10:03:09.488Z,-1.2
2023-01-18T10:04:09.488Z,-1.2
2023-01-18T10:05:09.494Z,-1.1
2023-01-18T10:06:09.499Z,-1.1
2023-01-18T10:07:09.491Z,-1.1
2023-01-18T10:08:09.491Z,-1
2023-01-18T10:09:09.486Z,-1
2023-01-18T10:10:09.507Z,-1
2023-01-18T10:11:09.931Z,-1
2023-01-18T10:12:09.491Z,-1
2023-01-18T10:13:09.491Z,-1
2023-01-18T10:14:09.500Z,-1
2023-01-18T10:15:09.485Z,-1
2023-01-18T10:16:09.507Z,-0.9
2023-01-18T10:17:09.487Z,-0.9
2023-01-18T10:18:09.753Z,-0.9
2023-01-18T10:19:09.653Z,-0.9
2023-01-18T10:20:09.525Z,-0.8
2023-01-18T10:21:09.750Z,-0.8
2023-01-18T10:22:09.495Z,-0.8
2023-01-18T10:23:09.487Z,-0.8
2023-01-18T10:24:09.486Z,-0.8
2023-01-18T10:25:09.491Z,-0.8
2023-01-18T10:26:09.484Z,-0.8
2023-01-18T10:27:09.492Z,-0.8
2023-01-18T10:28:09.486Z,-0.8
2023-01-18T10:29:09.494Z,-0.7
2023-01-18T10:30:09.499Z,-0.7
2023-01-18T10:31:09.512Z,-0.7
2023-01-18T10:32:09.492Z,-0.7
2023-01-18T10:33:09.484Z,-0.6
2023-01-18T10:34:09.501Z,-0.6
2023-01-18T10:35:09.500Z,-0.6
2023-01-18T10:36:11.548Z,-0.6
2023-01-18T10:37:09.517Z,-0.5
2023-01-18T10:38:09.489Z,-0.5
2023-01-18T10:39:09.491Z,-0.5
2023-01-18T10:40:09.512Z,-0.5
2023-01-18T10:41:09.490Z,-0.5
2023-01-18T10:42:09.489Z,-0.5
2023-01-18T10:43:09.488Z,-0.5
2023-01-18T10:44:09.486Z,-0.5
2023-01-18T10:45:09.519Z,-0.4
2023-01-18T10:46:09.545Z,-0.4
2023-01-18T10:47:09.493Z,-0.4
2023-01-18T10:48:09.494Z,-0.4
2023-01-18T10:49:09.521Z,-0.4
2023-01-18T10:50:09.737Z,-0.3
2023-01-18T10:51:09.503Z,-0.3
2023-01-18T10:52:09.484Z,-0.3
2023-01-18T10:53:09.486Z,-0.3
2023-01-18T10:54:09.489Z,-0.3
2023-01-18T10:55:09.517Z,-0.3
2023-01-18T10:56:09.547Z,-0.3
2023-01-18T10:57:10.095Z,-0.3
2023-01-18T10:58:09.485Z,-0.2
2023-01-18T10:59:09.641Z,-0.2
2023-01-18T11:00:09.516Z,-0.2
2023-01-18T11:01:09.743Z,-0.1
2023-01-18T11:02:09.982Z,-0.1
2023-01-18T11:03:10.134Z,-0.1
2023-01-18T11:04:09.695Z,-0.1
2023-01-18T11:05:09.892Z,-0.1
2023-01-18T11:06:09.483Z,-0.1
2023-01-18T11:07:09.646Z,-0.1
2023-01-18T11:08:09.492Z,-0.1
2023-01-18T11:09:09.485Z,-0.1
2023-01-18T11:10:09.548Z,-0.1
2023-01-18T11:11:09.482Z,-0.1
2023-01-18T11:12:09.493Z,-0.1
2023-01-18T11:13:09.691Z,-0.1
2023-01-18T11:14:09.490Z,-0.1
2023-01-18T11:15:09.483Z,-0.1
2023-01-18T11:16:09.516Z,-0.1
2023-01-18T11:17:09.494Z,0
2023-01-18T11:18:09.483Z,0
2023-01-18T11:19:09.502Z,0
2023-01-18T11:20:09.510Z,0
2023-01-18T11:21:09.483Z,0
2023-01-18T11:22:09.491Z,0
2023-01-18T11:23:09.487Z,0
2023-01-18T11:24:09.528Z,0
2023-01-18T11:25:09.490Z,0
2023-01-18T11:26:09.504Z,0
2023-01-18T11:27:09.487Z,0
2023-01-18T11:28:09.491Z,0.1
2023-01-18T11:29:09.485Z,0
2023-01-18T11:30:09.486Z,0.1
2023-01-18T11:31:09.486Z,0
2023-01-18T11:32:09.625Z,0.1
2023-01-18T11:33:09.544Z,0
2023-01-18T11:34:09.496Z,0
2023-01-18T11:35:09.492Z,0
2023-01-18T11:36:09.518Z,0
2023-01-18T11:37:09.488Z,0
2023-01-18T11:38:09.481Z,0
2023-01-18T11:39:09.489Z,0
2023-01-18T11:40:09.481Z,0
2023-01-18T11:41:09.511Z,0
2023-01-18T11:42:09.489Z,0
2023-01-18T11:43:09.483Z,0
2023-01-18T11:44:09.490Z,0
2023-01-18T11:45:09.493Z,0
2023-01-18T11:46:09.574Z,0
2023-01-18T11:47:09.484Z,0
2023-01-18T11:48:09.619Z,0
2023-01-18T11:49:09.483Z,0
2023-01-18T11:50:21.187Z,0
2023-01-18T11:51:09.504Z,0
2023-01-18T11:52:09.493Z,0
2023-01-18T11:53:09.485Z,-0.1
2023-01-18T11:54:09.490Z,-0.1
2023-01-18T11:55:09.490Z,-0.1
2023-01-18T11:56:09.521Z,-0.1
2023-01-18T11:57:09.493Z,-0.1
2023-01-18T11:58:09.498Z,-0.1
2023-01-18T11:59:09.490Z,-0.1
2023-01-18T12:00:09.683Z,-0.1
2023-01-18T12:01:09.680Z,0
2023-01-18T12:02:09.534Z,0
2023-01-18T12:03:09.540Z,0
2023-01-18T12:04:09.491Z,0
2023-01-18T12:05:09.483Z,0
2023-01-18T12:06:09.480Z,0
2023-01-18T12:07:09.489Z,0
2023-01-18T12:08:09.487Z,0
2023-01-18T12:09:09.668Z,0
2023-01-18T12:10:09.893Z,0
2023-01-18T12:11:10.187Z,0
2023-01-18T12:12:19.175Z,0
2023-01-18T12:13:09.483Z,0
2023-01-18T12:14:09.719Z,0
2023-01-18T12:15:09.491Z,0
2023-01-18T12:16:09.558Z,0
2023-01-18T12:17:09.490Z,0
2023-01-18T12:18:13.165Z,0
2023-01-18T12:19:09.510Z,0
2023-01-18T12:20:09.495Z,0
2023-01-18T12:21:09.488Z,0
2023-01-18T12:22:09.483Z,0
2023-01-18T12:23:09.495Z,0
2023-01-18T12:24:09.482Z,0
2023-01-18T12:25:09.506Z,0
2023-01-18T12:26:12.361Z,0
2023-01-18T12:27:09.492Z,0.1
2023-01-18T12:28:09.495Z,0.1
2023-01-18T12:29:09.489Z,0.1
2023-01-18T12:30:10.708Z,0.1
2023-01-18T12:31:09.741Z,0.1
2023-01-18T12:32:09.487Z,0.1
2023-01-18T12:33:09.781Z,0.1
2023-01-18T12:34:09.497Z,0.1
2023-01-18T12:35:22.805Z,0.1
2023-01-18T12:36:09.483Z,0.1
2023-01-18T12:37:09.483Z,0.1
2023-01-18T12:38:10.547Z,0.1
2023-01-18T12:39:09.515Z,0.1
2023-01-18T12:40:09.490Z,0.1
2023-01-18T12:41:09.481Z,0.1
2023-01-18T12:42:09.496Z,0.1
2023-01-18T12:43:09.608Z,0.1
2023-01-18T12:44:09.488Z,0.1
2023-01-18T12:45:09.482Z,0.1
2023-01-18T12:46:09.567Z,0.1
2023-01-18T12:47:09.486Z,0.1
2023-01-18T12:48:09.487Z,0.2
2023-01-18T12:49:09.499Z,0.2
2023-01-18T12:50:09.488Z,0.2
2023-01-18T12:51:09.522Z,0.2
2023-01-18T12:52:18.397Z,0.2
2023-01-18T12:53:09.490Z,0.3
2023-01-18T12:54:09.490Z,0.3
2023-01-18T12:55:09.485Z,0.3
2023-01-18T12:56:09.513Z,0.3
2023-01-18T12:57:09.485Z,0.3
2023-01-18T12:58:09.682Z,0.3
2023-01-18T12:59:09.490Z,0.3
2023-01-18T13:00:09.491Z,0.4
2023-01-18T13:01:09.623Z,0.4
2023-01-18T13:02:09.557Z,0.4
2023-01-18T13:03:09.488Z,0.4
2023-01-18T13:04:09.490Z,0.5
2023-01-18T13:05:09.530Z,0.5
2023-01-18T13:06:09.497Z,0.5
2023-01-18T13:07:09.486Z,0.5
2023-01-18T13:08:09.486Z,0.5
2023-01-18T13:09:09.492Z,0.5
2023-01-18T13:10:09.521Z,0.5
2023-01-18T13:11:09.484Z,0.5
2023-01-18T13:12:09.483Z,0.5
2023-01-18T13:13:09.485Z,0.5
2023-01-18T13:14:09.498Z,0.5
2023-01-18T13:15:09.513Z,0.5
2023-01-18T13:16:09.613Z,0.5
2023-01-18T13:17:09.487Z,0.5
2023-01-18T13:18:09.495Z,0.5
2023-01-18T13:19:09.489Z,0.5
2023-01-18T13:20:09.507Z,0.5
2023-01-18T13:21:09.484Z,0.6
2023-01-18T13:22:09.488Z,0.6
2023-01-18T13:23:09.483Z,0.6
2023-01-18T13:24:09.743Z,0.6
2023-01-18T13:25:09.566Z,0.6
2023-01-18T13:26:09.487Z,0.6
2023-01-18T13:27:09.496Z,0.6
2023-01-18T13:28:09.491Z,0.6
2023-01-18T13:29:09.485Z,0.6
2023-01-18T13:30:09.500Z,0.6
2023-01-18T13:31:09.577Z,0.6
2023-01-18T13:32:09.485Z,0.6